createdAt,value
2022-08-08T00:15:24.413Z,5.70
2022-08-08T00:35:22.292Z,4.50
2022-08-08T00:55:52.586Z,5.80
2022-08-08T01:15:37.140Z,4.70
2022-08-08T01:35:29.745Z,2.70
2022-08-08T01:56:27.795Z,3.50
2022-08-08T02:15:20.921Z,6.60
2022-08-08T02:35:22.360Z,3.80
2022-08-08T02:55:21.376Z,4.40
2022-08-08T03:16:00.785Z,5.00
2022-08-08T03:35:19.780Z,4.40
2022-08-08T03:55:55.797Z,4.00
2022-08-08T04:15:22.263Z,4.20
2022-08-08T04:35:20.291Z,4.30
2022-08-08T04:55:19.633Z,3.60
2022-08-08T05:15:18.333Z,3.40
2022-08-08T05:35:18.057Z,3.50
2022-08-08T05:55:18.822Z,3.70
2022-08-08T06:15:17.547Z,4.70
2022-08-08T06:36:06.700Z,3.10
2022-08-08T06:55:16.977Z,3.00
2022-08-08T07:15:31.994Z,2.40
2022-08-08T07:35:17.929Z,1.80
2022-08-08T07:55:17.212Z,0.90
2022-08-08T08:15:16.126Z,2.10
2022-08-08T08:35:15.629Z,1.10
2022-08-08T08:55:16.369Z,1.90
2022-08-08T09:15:15.088Z,1.90
2022-08-08T09:35:16.038Z,1.90
2022-08-08T09:55:17.168Z,2.80
2022-08-08T10:17:56.558Z,2.30
2022-08-08T10:37:25.356Z,2.80
2022-08-08T10:57:33.332Z,4.30
2022-08-08T11:17:57.906Z,3.60
2022-08-08T11:38:34.509Z,0.80
2022-08-08T11:57:27.127Z,0.90
2022-08-08T12:17:24.002Z,1.00
2022-08-08T12:37:25.893Z,2.00
2022-08-08T12:57:23.382Z,1.10
2022-08-08T13:18:08.448Z,0.80
2022-08-08T13:37:52.111Z,1.00
2022-08-08T13:58:07.249Z,2.90
2022-08-08T14:17:22.429Z,0.40
2022-08-08T14:37:21.106Z,1.50
2022-08-08T14:58:00.968Z,0.60
2022-08-08T15:17:20.590Z,0.50
2022-08-08T15:37:21.324Z,2.20
2022-08-08T15:57:35.278Z,0.80
2022-08-08T16:17:57.649Z,0.90
2022-08-08T16:37:20.486Z,1.40
2022-08-08T16:58:11.941Z,0.70
2022-08-08T17:17:22.862Z,0.70
2022-08-08T17:37:19.814Z,1.20
2022-08-08T17:57:19.567Z,1.20
2022-08-08T18:18:04.824Z,0.90
2022-08-08T18:37:34.713Z,0.80
2022-08-08T18:57:17.687Z,0.80
2022-08-08T19:17:53.057Z,1.60
2022-08-08T19:37:18.081Z,0.90
2022-08-08T19:57:17.837Z,1.40
2022-08-08T20:17:28.103Z,1.70
2022-08-08T20:37:17.269Z,1.40
2022-08-08T20:57:18.775Z,2.10
2022-08-08T21:17:16.705Z,1.40
2022-08-08T21:37:18.929Z,2.20
2022-08-08T21:57:16.218Z,1.80
2022-08-08T22:17:14.898Z,1.00
2022-08-08T22:37:48.737Z,4.30
2022-08-08T22:57:18.301Z,2.40
2022-08-08T23:27:49.426Z,2.30
2022-08-08T23:49:05.809Z,1.30
